sensor_id;sensor_type;location;lat;lon;timestamp;temperature;humidity
28715;DHT22;15886;49.170;14.572;2023-01-30T00:02:04;-4.10;99.90
28715;DHT22;15886;49.170;14.572;2023-01-30T00:04:33;-4.10;99.90
28715;DHT22;15886;49.170;14.572;2023-01-30T00:07:01;-4.10;99.90
28715;DHT22;15886;49.170;14.572;2023-01-30T00:09:29;-4.10;99.90
28715;DHT22;15886;49.170;14.572;2023-01-30T00:12:09;-4.10;99.90
28715;DHT22;15886;49.170;14.572;2023-01-30T00:14:37;-4.10;99.90
28715;DHT22;15886;49.170;14.572;2023-01-30T00:17:05;-4.10;99.90
28715;DHT22;15886;49.170;14.572;2023-01-30T00:19:33;-4.00;99.90
28715;DHT22;15886;49.170;14.572;2023-01-30T00:22:02;-4.10;99.90
28715;DHT22;15886;49.170;14.572;2023-01-30T00:24:40;-4.10;99.90
28715;DHT22;15886;49.170;14.572;2023-01-30T00:27:09;-4.10;99.90
28715;DHT22;15886;49.170;14.572;2023-01-30T00:29:37;-4.20;99.90
28715;DHT22;15886;49.170;14.572;2023-01-30T00:32:05;-4.20;99.90
28715;DHT22;15886;49.170;14.572;2023-01-30T00:34:33;-4.20;99.90
28715;DHT22;15886;49.170;14.572;2023-01-30T00:37:02;-4.30;99.90
28715;DHT22;15886;49.170;14.572;2023-01-30T00:39:34;-4.20;99.90
28715;DHT22;15886;49.170;14.572;2023-01-30T00:42:03;-4.10;99.90
28715;DHT22;15886;49.170;14.572;2023-01-30T00:44:52;-4.00;99.90
28715;DHT22;15886;49.170;14.572;2023-01-30T00:47:38;-3.90;99.90
28715;DHT22;15886;49.170;14.572;2023-01-30T00:50:07;-3.80;99.90
28715;DHT22;15886;49.170;14.572;2023-01-30T00:52:36;-3.70;99.90
28715;DHT22;15886;49.170;14.572;2023-01-30T00:55:04;-3.60;99.90
28715;DHT22;15886;49.170;14.572;2023-01-30T00:57:34;-3.60;99.90
28715;DHT22;15886;49.170;14.572;2023-01-30T01:00:08;-3.70;99.90
28715;DHT22;15886;49.170;14.572;2023-01-30T01:02:40;-3.70;99.90
28715;DHT22;15886;49.170;14.572;2023-01-30T01:05:08;-3.70;99.90
28715;DHT22;15886;49.170;14.572;2023-01-30T01:07:36;-3.80;99.90
28715;DHT22;15886;49.170;14.572;2023-01-30T01:10:05;-3.80;99.90
28715;DHT22;15886;49.170;14.572;2023-01-30T01:12:33;-3.80;99.90
28715;DHT22;15886;49.170;14.572;2023-01-30T01:15:02;-3.80;99.90
28715;DHT22;15886;49.170;14.572;2023-01-30T01:17:31;-3.90;99.90
28715;DHT22;15886;49.170;14.572;2023-01-30T01:19:59;-3.90;99.90
28715;DHT22;15886;49.170;14.572;2023-01-30T01:22:27;-4.00;99.90
28715;DHT22;15886;49.170;14.572;2023-01-30T01:24:55;-4.10;99.90
28715;DHT22;15886;49.170;14.572;2023-01-30T01:27:23;-4.00;99.90
28715;DHT22;15886;49.170;14.572;2023-01-30T01:29:51;-4.00;99.90
28715;DHT22;15886;49.170;14.572;2023-01-30T01:32:21;-4.10;99.90
28715;DHT22;15886;49.170;14.572;2023-01-30T01:34:49;-4.10;99.90
28715;DHT22;15886;49.170;14.572;2023-01-30T01:37:21;-4.10;99.90
28715;DHT22;15886;49.170;14.572;2023-01-30T01:39:49;-4.20;99.90
28715;DHT22;15886;49.170;14.572;2023-01-30T01:42:37;-4.20;99.90
28715;DHT22;15886;49.170;14.572;2023-01-30T01:48:28;-4.20;99.90
28715;DHT22;15886;49.170;14.572;2023-01-30T01:50:44;-4.20;99.90
28715;DHT22;15886;49.170;14.572;2023-01-30T01:53:16;-4.20;99.90
28715;DHT22;15886;49.170;14.572;2023-01-30T01:55:49;-4.20;99.90
28715;DHT22;15886;49.170;14.572;2023-01-30T01:58:28;-4.20;99.90
28715;DHT22;15886;49.170;14.572;2023-01-30T02:00:59;-4.20;99.90
28715;DHT22;15886;49.170;14.572;2023-01-30T02:03:31;-4.20;99.90
28715;DHT22;15886;49.170;14.572;2023-01-30T02:06:02;-4.20;99.90
28715;DHT22;15886;49.170;14.572;2023-01-30T02:08:52;-4.20;99.90
28715;DHT22;15886;49.170;14.572;2023-01-30T02:13:56;-4.10;99.90
28715;DHT22;15886;49.170;14.572;2023-01-30T02:16:24;-4.10;99.90
28715;DHT22;15886;49.170;14.572;2023-01-30T02:18:53;-4.10;99.90
28715;DHT22;15886;49.170;14.572;2023-01-30T02:33:00;-4.20;99.90
28715;DHT22;15886;49.170;14.572;2023-01-30T02:42:33;-4.20;99.90
28715;DHT22;15886;49.170;14.572;2023-01-30T02:48:06;-4.40;99.90
28715;DHT22;15886;49.170;14.572;2023-01-30T02:50:48;-4.40;99.90
28715;DHT22;15886;49.170;14.572;2023-01-30T02:53:18;-4.40;99.90
28715;DHT22;15886;49.170;14.572;2023-01-30T02:55:47;-4.40;99.90
28715;DHT22;15886;49.170;14.572;2023-01-30T02:58:18;-4.40;99.90
28715;DHT22;15886;49.170;14.572;2023-01-30T03:09:17;-4.30;99.90
28715;DHT22;15886;49.170;14.572;2023-01-30T03:12:56;-4.00;99.90
28715;DHT22;15886;49.170;14.572;2023-01-30T03:15:02;-3.80;99.90
28715;DHT22;15886;49.170;14.572;2023-01-30T03:17:32;-3.40;99.90
28715;DHT22;15886;49.170;14.572;2023-01-30T03:20:02;-3.20;99.90
28715;DHT22;15886;49.170;14.572;2023-01-30T03:22:31;-3.00;99.90
28715;DHT22;15886;49.170;14.572;2023-01-30T03:24:59;-2.80;99.90
28715;DHT22;15886;49.170;14.572;2023-01-30T03:27:28;-2.80;99.90
28715;DHT22;15886;49.170;14.572;2023-01-30T03:29:57;-2.70;99.90
28715;DHT22;15886;49.170;14.572;2023-01-30T03:32:25;-2.70;99.90
28715;DHT22;15886;49.170;14.572;2023-01-30T03:34:56;-2.70;99.90
28715;DHT22;15886;49.170;14.572;2023-01-30T03:37:26;-2.70;99.90
28715;DHT22;15886;49.170;14.572;2023-01-30T03:39:54;-2.90;99.90
28715;DHT22;15886;49.170;14.572;2023-01-30T03:42:23;-2.90;99.90
28715;DHT22;15886;49.170;14.572;2023-01-30T03:44:52;-2.80;99.90
28715;DHT22;15886;49.170;14.572;2023-01-30T03:47:21;-2.60;99.90
28715;DHT22;15886;49.170;14.572;2023-01-30T03:49:50;-2.60;99.90
28715;DHT22;15886;49.170;14.572;2023-01-30T03:52:18;-2.50;99.90
28715;DHT22;15886;49.170;14.572;2023-01-30T03:54:47;-2.40;99.90
28715;DHT22;15886;49.170;14.572;2023-01-30T03:57:15;-2.40;99.90
28715;DHT22;15886;49.170;14.572;2023-01-30T03:59:43;-2.30;99.90
28715;DHT22;15886;49.170;14.572;2023-01-30T04:02:14;-2.20;99.90
28715;DHT22;15886;49.170;14.572;2023-01-30T04:04:50;-2.20;99.90
28715;DHT22;15886;49.170;14.572;2023-01-30T04:07:18;-2.20;99.90
28715;DHT22;15886;49.170;14.572;2023-01-30T04:09:49;-2.20;99.90
28715;DHT22;15886;49.170;14.572;2023-01-30T04:12:19;-2.20;99.90
28715;DHT22;15886;49.170;14.572;2023-01-30T04:14:53;-2.20;99.90
28715;DHT22;15886;49.170;14.572;2023-01-30T04:17:29;-2.30;99.90
28715;DHT22;15886;49.170;14.572;2023-01-30T04:20:15;-2.30;99.90
28715;DHT22;15886;49.170;14.572;2023-01-30T04:22:49;-2.40;99.90
28715;DHT22;15886;49.170;14.572;2023-01-30T04:25:18;-2.40;99.90
28715;DHT22;15886;49.170;14.572;2023-01-30T04:27:47;-2.40;99.90
28715;DHT22;15886;49.170;14.572;2023-01-30T04:30:18;-2.30;99.90
28715;DHT22;15886;49.170;14.572;2023-01-30T04:32:49;-2.30;99.90
28715;DHT22;15886;49.170;14.572;2023-01-30T04:35:19;-2.20;99.90
28715;DHT22;15886;49.170;14.572;2023-01-30T04:37:47;-2.10;99.90
28715;DHT22;15886;49.170;14.572;2023-01-30T04:40:19;-2.10;99.90
28715;DHT22;15886;49.170;14.572;2023-01-30T04:42:53;-2.10;99.90
28715;DHT22;15886;49.170;14.572;2023-01-30T04:45:49;-2.00;99.90
28715;DHT22;15886;49.170;14.572;2023-01-30T04:48:19;-2.00;99.90
28715;DHT22;15886;49.170;14.572;2023-01-30T04:50:51;-1.90;99.90
28715;DHT22;15886;49.170;14.572;2023-01-30T04:53:20;-1.90;99.90
28715;DHT22;15886;49.170;14.572;2023-01-30T04:55:50;-1.80;99.90
28715;DHT22;15886;49.170;14.572;2023-01-30T04:58:20;-1.70;99.90
28715;DHT22;15886;49.170;14.572;2023-01-30T05:00:50;-1.70;99.90
28715;DHT22;15886;49.170;14.572;2023-01-30T05:03:21;-1.60;99.90
28715;DHT22;15886;49.170;14.572;2023-01-30T05:05:49;-1.60;99.90
28715;DHT22;15886;49.170;14.572;2023-01-30T05:08:17;-1.60;99.90
28715;DHT22;15886;49.170;14.572;2023-01-30T05:10:45;-1.50;99.90
28715;DHT22;15886;49.170;14.572;2023-01-30T05:13:14;-1.50;99.90
28715;DHT22;15886;49.170;14.572;2023-01-30T05:15:45;-1.50;99.90
28715;DHT22;15886;49.170;14.572;2023-01-30T05:18:13;-1.50;99.90
28715;DHT22;15886;49.170;14.572;2023-01-30T05:20:42;-1.50;99.90
28715;DHT22;15886;49.170;14.572;2023-01-30T05:23:10;-1.40;99.90
28715;DHT22;15886;49.170;14.572;2023-01-30T05:26:00;-1.50;99.90
28715;DHT22;15886;49.170;14.572;2023-01-30T05:28:29;-1.50;99.90
28715;DHT22;15886;49.170;14.572;2023-01-30T05:31:19;-1.50;99.90
28715;DHT22;15886;49.170;14.572;2023-01-30T05:33:56;-1.50;99.90
28715;DHT22;15886;49.170;14.572;2023-01-30T05:36:28;-1.60;99.90
28715;DHT22;15886;49.170;14.572;2023-01-30T05:38:57;-1.60;99.90
28715;DHT22;15886;49.170;14.572;2023-01-30T05:41:25;-1.70;99.90
28715;DHT22;15886;49.170;14.572;2023-01-30T05:43:54;-1.80;99.90
28715;DHT22;15886;49.170;14.572;2023-01-30T05:46:23;-1.80;99.90
28715;DHT22;15886;49.170;14.572;2023-01-30T05:48:51;-1.70;99.90
28715;DHT22;15886;49.170;14.572;2023-01-30T05:51:23;-1.70;99.90
28715;DHT22;15886;49.170;14.572;2023-01-30T05:53:52;-1.70;99.90
28715;DHT22;15886;49.170;14.572;2023-01-30T05:56:36;-1.60;99.90
28715;DHT22;15886;49.170;14.572;2023-01-30T06:00:05;-1.60;99.90
28715;DHT22;15886;49.170;14.572;2023-01-30T06:02:48;-1.40;99.90
28715;DHT22;15886;49.170;14.572;2023-01-30T06:05:16;-1.40;99.90
28715;DHT22;15886;49.170;14.572;2023-01-30T06:07:45;-1.30;99.90
28715;DHT22;15886;49.170;14.572;2023-01-30T06:10:22;-1.20;99.90
28715;DHT22;15886;49.170;14.572;2023-01-30T06:12:50;-1.20;99.90
28715;DHT22;15886;49.170;14.572;2023-01-30T06:15:21;-1.10;99.90
28715;DHT22;15886;49.170;14.572;2023-01-30T06:17:50;-1.10;99.90
28715;DHT22;15886;49.170;14.572;2023-01-30T06:20:21;-1.00;99.90
28715;DHT22;15886;49.170;14.572;2023-01-30T06:22:50;-0.90;99.90
28715;DHT22;15886;49.170;14.572;2023-01-30T06:25:21;-0.90;99.90
28715;DHT22;15886;49.170;14.572;2023-01-30T06:27:49;-0.90;99.90
28715;DHT22;15886;49.170;14.572;2023-01-30T06:30:26;-0.80;99.90
28715;DHT22;15886;49.170;14.572;2023-01-30T06:32:54;-0.80;99.90
28715;DHT22;15886;49.170;14.572;2023-01-30T06:35:22;-0.70;99.90
28715;DHT22;15886;49.170;14.572;2023-01-30T06:37:50;-0.70;99.90
28715;DHT22;15886;49.170;14.572;2023-01-30T06:40:18;-0.70;99.90
28715;DHT22;15886;49.170;14.572;2023-01-30T06:42:47;-0.70;99.90
28715;DHT22;15886;49.170;14.572;2023-01-30T06:45:18;-0.60;99.90
28715;DHT22;15886;49.170;14.572;2023-01-30T06:47:59;-0.60;99.90
28715;DHT22;15886;49.170;14.572;2023-01-30T06:50:28;-0.60;99.90
28715;DHT22;15886;49.170;14.572;2023-01-30T06:52:57;-0.60;99.90
28715;DHT22;15886;49.170;14.572;2023-01-30T06:55:26;-0.50;99.90
28715;DHT22;15886;49.170;14.572;2023-01-30T06:58:21;-0.50;99.90
28715;DHT22;15886;49.170;14.572;2023-01-30T07:00:49;-0.40;99.90
28715;DHT22;15886;49.170;14.572;2023-01-30T07:03:17;-0.40;99.90
28715;DHT22;15886;49.170;14.572;2023-01-30T07:05:46;-0.40;99.90
28715;DHT22;15886;49.170;14.572;2023-01-30T07:08:16;-0.30;99.90
28715;DHT22;15886;49.170;14.572;2023-01-30T07:10:44;-0.30;99.90
28715;DHT22;15886;49.170;14.572;2023-01-30T07:13:40;-0.30;99.90
28715;DHT22;15886;49.170;14.572;2023-01-30T07:16:08;-0.30;99.90
28715;DHT22;15886;49.170;14.572;2023-01-30T07:18:37;-0.20;99.90
28715;DHT22;15886;49.170;14.572;2023-01-30T07:21:15;-0.20;99.90
28715;DHT22;15886;49.170;14.572;2023-01-30T07:23:45;-0.20;99.90
28715;DHT22;15886;49.170;14.572;2023-01-30T07:26:39;-0.20;99.90
28715;DHT22;15886;49.170;14.572;2023-01-30T07:29:07;-0.20;99.90
28715;DHT22;15886;49.170;14.572;2023-01-30T07:31:36;-0.10;99.90
28715;DHT22;15886;49.170;14.572;2023-01-30T07:34:04;-0.10;99.90
28715;DHT22;15886;49.170;14.572;2023-01-30T07:36:33;-0.10;99.90
28715;DHT22;15886;49.170;14.572;2023-01-30T07:39:04;-0.10;99.90
28715;DHT22;15886;49.170;14.572;2023-01-30T07:41:37;0.00;99.90
28715;DHT22;15886;49.170;14.572;2023-01-30T07:44:10;0.00;99.90
28715;DHT22;15886;49.170;14.572;2023-01-30T07:46:40;0.10;99.90
28715;DHT22;15886;49.170;14.572;2023-01-30T07:49:08;0.10;99.90
28715;DHT22;15886;49.170;14.572;2023-01-30T07:51:45;0.20;99.90
28715;DHT22;15886;49.170;14.572;2023-01-30T07:54:13;0.20;99.90
28715;DHT22;15886;49.170;14.572;2023-01-30T07:56:47;0.30;99.90
28715;DHT22;15886;49.170;14.572;2023-01-30T07:59:16;0.30;99.90
28715;DHT22;15886;49.170;14.572;2023-01-30T08:01:44;0.30;99.90
28715;DHT22;15886;49.170;14.572;2023-01-30T08:04:12;0.40;99.90
28715;DHT22;15886;49.170;14.572;2023-01-30T08:06:40;0.40;99.90
28715;DHT22;15886;49.170;14.572;2023-01-30T08:09:09;0.50;99.90
28715;DHT22;15886;49.170;14.572;2023-01-30T08:11:37;0.50;99.90
28715;DHT22;15886;49.170;14.572;2023-01-30T08:14:05;0.60;99.90
28715;DHT22;15886;49.170;14.572;2023-01-30T08:16:34;0.60;99.90
28715;DHT22;15886;49.170;14.572;2023-01-30T08:19:04;0.60;99.90
28715;DHT22;15886;49.170;14.572;2023-01-30T08:21:33;0.70;99.90
28715;DHT22;15886;49.170;14.572;2023-01-30T08:24:01;0.70;99.90
28715;DHT22;15886;49.170;14.572;2023-01-30T08:26:29;0.80;99.90
28715;DHT22;15886;49.170;14.572;2023-01-30T08:28:57;0.80;99.90
28715;DHT22;15886;49.170;14.572;2023-01-30T08:31:26;0.90;99.90
28715;DHT22;15886;49.170;14.572;2023-01-30T08:33:54;0.90;99.90
28715;DHT22;15886;49.170;14.572;2023-01-30T08:36:22;0.90;99.90
28715;DHT22;15886;49.170;14.572;2023-01-30T08:38:50;1.00;99.90
28715;DHT22;15886;49.170;14.572;2023-01-30T08:41:19;1.00;99.90
28715;DHT22;15886;49.170;14.572;2023-01-30T08:43:47;1.10;99.90
28715;DHT22;15886;49.170;14.572;2023-01-30T08:46:18;1.40;99.90
28715;DHT22;15886;49.170;14.572;2023-01-30T08:48:48;1.50;99.90
28715;DHT22;15886;49.170;14.572;2023-01-30T08:51:16;1.60;99.90
28715;DHT22;15886;49.170;14.572;2023-01-30T08:53:44;1.70;99.90
28715;DHT22;15886;49.170;14.572;2023-01-30T08:56:12;1.70;99.90
28715;DHT22;15886;49.170;14.572;2023-01-30T08:58:40;1.80;99.90
28715;DHT22;15886;49.170;14.572;2023-01-30T09:01:10;1.90;99.90
28715;DHT22;15886;49.170;14.572;2023-01-30T09:03:38;2.00;99.90
28715;DHT22;15886;49.170;14.572;2023-01-30T09:06:07;2.10;99.90
28715;DHT22;15886;49.170;14.572;2023-01-30T09:08:35;2.10;99.90
28715;DHT22;15886;49.170;14.572;2023-01-30T09:11:04;2.20;99.90
28715;DHT22;15886;49.170;14.572;2023-01-30T09:13:33;2.50;99.90
28715;DHT22;15886;49.170;14.572;2023-01-30T09:16:02;2.90;99.90
28715;DHT22;15886;49.170;14.572;2023-01-30T09:18:32;3.20;99.90
28715;DHT22;15886;49.170;14.572;2023-01-30T09:21:04;3.50;99.90
28715;DHT22;15886;49.170;14.572;2023-01-30T09:23:32;3.70;99.90
28715;DHT22;15886;49.170;14.572;2023-01-30T09:26:00;3.50;99.90
28715;DHT22;15886;49.170;14.572;2023-01-30T09:28:29;3.30;99.90
28715;DHT22;15886;49.170;14.572;2023-01-30T09:30:58;3.10;99.90
28715;DHT22;15886;49.170;14.572;2023-01-30T09:33:26;3.00;99.90
28715;DHT22;15886;49.170;14.572;2023-01-30T09:35:55;2.90;99.90
28715;DHT22;15886;49.170;14.572;2023-01-30T09:38:23;2.90;99.90
28715;DHT22;15886;49.170;14.572;2023-01-30T09:40:54;2.80;99.90
28715;DHT22;15886;49.170;14.572;2023-01-30T09:54:51;2.70;99.90
28715;DHT22;15886;49.170;14.572;2023-01-30T09:57:25;2.70;99.90
28715;DHT22;15886;49.170;14.572;2023-01-30T09:59:59;2.70;99.90
28715;DHT22;15886;49.170;14.572;2023-01-30T10:02:52;2.70;99.90
28715;DHT22;15886;49.170;14.572;2023-01-30T10:05:53;2.70;99.90
28715;DHT22;15886;49.170;14.572;2023-01-30T10:19:38;2.60;99.90
28715;DHT22;15886;49.170;14.572;2023-01-30T10:22:30;2.50;99.90
28715;DHT22;15886;49.170;14.572;2023-01-30T10:27:34;2.50;99.90
28715;DHT22;15886;49.170;14.572;2023-01-30T10:30:35;2.60;99.90
28715;DHT22;15886;49.170;14.572;2023-01-30T10:33:20;2.60;99.90
28715;DHT22;15886;49.170;14.572;2023-01-30T10:35:58;2.60;99.90
28715;DHT22;15886;49.170;14.572;2023-01-30T10:38:46;2.60;99.90
28715;DHT22;15886;49.170;14.572;2023-01-30T10:42:30;2.60;99.90
28715;DHT22;15886;49.170;14.572;2023-01-30T10:44:30;2.70;99.90
28715;DHT22;15886;49.170;14.572;2023-01-30T10:47:32;2.60;99.90
28715;DHT22;15886;49.170;14.572;2023-01-30T10:50:18;2.70;99.90
28715;DHT22;15886;49.170;14.572;2023-01-30T10:53:10;2.70;99.90
28715;DHT22;15886;49.170;14.572;2023-01-30T10:56:07;2.70;99.90
28715;DHT22;15886;49.170;14.572;2023-01-30T10:58:55;2.70;99.90
28715;DHT22;15886;49.170;14.572;2023-01-30T11:01:39;2.70;99.90
28715;DHT22;15886;49.170;14.572;2023-01-30T11:06:56;2.70;99.90
28715;DHT22;15886;49.170;14.572;2023-01-30T11:09:40;2.60;99.90
28715;DHT22;15886;49.170;14.572;2023-01-30T11:12:09;2.60;99.90
28715;DHT22;15886;49.170;14.572;2023-01-30T11:17:21;2.60;99.90
28715;DHT22;15886;49.170;14.572;2023-01-30T11:19:56;2.50;99.90
28715;DHT22;15886;49.170;14.572;2023-01-30T11:22:25;2.50;99.90
28715;DHT22;15886;49.170;14.572;2023-01-30T11:25:05;2.60;99.90
28715;DHT22;15886;49.170;14.572;2023-01-30T11:27:34;2.60;99.90
28715;DHT22;15886;49.170;14.572;2023-01-30T11:30:13;2.50;99.90
28715;DHT22;15886;49.170;14.572;2023-01-30T11:32:45;2.50;99.90
28715;DHT22;15886;49.170;14.572;2023-01-30T11:37:43;2.50;99.90
28715;DHT22;15886;49.170;14.572;2023-01-30T11:40:21;2.40;99.90
28715;DHT22;15886;49.170;14.572;2023-01-30T11:43:09;2.40;99.90
28715;DHT22;15886;49.170;14.572;2023-01-30T11:45:45;2.40;99.90
28715;DHT22;15886;49.170;14.572;2023-01-30T11:48:20;2.40;99.90
28715;DHT22;15886;49.170;14.572;2023-01-30T11:51:04;2.40;99.90
28715;DHT22;15886;49.170;14.572;2023-01-30T11:53:39;2.40;99.90
28715;DHT22;15886;49.170;14.572;2023-01-30T11:58:57;2.30;99.90
28715;DHT22;15886;49.170;14.572;2023-01-30T12:01:28;2.30;99.90
28715;DHT22;15886;49.170;14.572;2023-01-30T12:04:03;2.30;99.90
28715;DHT22;15886;49.170;14.572;2023-01-30T12:06:38;2.30;99.90
28715;DHT22;15886;49.170;14.572;2023-01-30T12:09:36;2.30;99.90
28715;DHT22;15886;49.170;14.572;2023-01-30T12:18:16;2.40;99.90
28715;DHT22;15886;49.170;14.572;2023-01-30T12:23:43;2.40;99.90
28715;DHT22;15886;49.170;14.572;2023-01-30T12:26:28;2.50;99.90
28715;DHT22;15886;49.170;14.572;2023-01-30T12:29:25;2.50;99.90
28715;DHT22;15886;49.170;14.572;2023-01-30T12:32:14;2.40;99.90
28715;DHT22;15886;49.170;14.572;2023-01-30T12:34:44;2.40;99.90
28715;DHT22;15886;49.170;14.572;2023-01-30T12:45:56;2.30;99.90
28715;DHT22;15886;49.170;14.572;2023-01-30T13:00:05;2.30;99.90
28715;DHT22;15886;49.170;14.572;2023-01-30T13:13:53;2.50;99.90
28715;DHT22;15886;49.170;14.572;2023-01-30T13:19:51;2.90;99.90
28715;DHT22;15886;49.170;14.572;2023-01-30T13:22:19;3.20;99.90
28715;DHT22;15886;49.170;14.572;2023-01-30T13:27:56;3.90;99.90
28715;DHT22;15886;49.170;14.572;2023-01-30T13:30:25;4.00;99.90
28715;DHT22;15886;49.170;14.572;2023-01-30T13:32:57;4.00;99.90
28715;DHT22;15886;49.170;14.572;2023-01-30T13:35:38;4.00;99.90
28715;DHT22;15886;49.170;14.572;2023-01-30T13:38:16;3.90;99.90
28715;DHT22;15886;49.170;14.572;2023-01-30T13:40:59;3.80;99.90
28715;DHT22;15886;49.170;14.572;2023-01-30T13:43:35;3.70;99.90
28715;DHT22;15886;49.170;14.572;2023-01-30T13:46:16;3.70;99.90
28715;DHT22;15886;49.170;14.572;2023-01-30T13:49:08;3.60;99.90
28715;DHT22;15886;49.170;14.572;2023-01-30T13:51:47;3.60;99.90
28715;DHT22;15886;49.170;14.572;2023-01-30T14:00:34;3.50;99.90
28715;DHT22;15886;49.170;14.572;2023-01-30T14:08:46;3.50;99.90
28715;DHT22;15886;49.170;14.572;2023-01-30T14:11:38;3.50;99.90
28715;DHT22;15886;49.170;14.572;2023-01-30T14:14:27;3.50;99.90
28715;DHT22;15886;49.170;14.572;2023-01-30T14:17:12;3.40;99.90
28715;DHT22;15886;49.170;14.572;2023-01-30T14:25:53;3.40;99.90
28715;DHT22;15886;49.170;14.572;2023-01-30T14:31:01;3.30;99.90
28715;DHT22;15886;49.170;14.572;2023-01-30T14:33:32;3.30;99.90
28715;DHT22;15886;49.170;14.572;2023-01-30T14:38:30;3.20;99.90
28715;DHT22;15886;49.170;14.572;2023-01-30T14:51:43;3.20;99.90
28715;DHT22;15886;49.170;14.572;2023-01-30T14:59:39;3.20;99.90
28715;DHT22;15886;49.170;14.572;2023-01-30T15:02:46;3.20;99.90
28715;DHT22;15886;49.170;14.572;2023-01-30T15:08:20;3.20;99.90
28715;DHT22;15886;49.170;14.572;2023-01-30T15:10:52;3.20;99.90
28715;DHT22;15886;49.170;14.572;2023-01-30T15:30:05;3.10;99.90
28715;DHT22;15886;49.170;14.572;2023-01-30T15:32:37;3.20;99.90
28715;DHT22;15886;49.170;14.572;2023-01-30T15:35:21;3.10;99.90
28715;DHT22;15886;49.170;14.572;2023-01-30T15:37:53;3.10;99.90
28715;DHT22;15886;49.170;14.572;2023-01-30T15:40:27;3.10;99.90
28715;DHT22;15886;49.170;14.572;2023-01-30T15:45:37;3.00;99.90
28715;DHT22;15886;49.170;14.572;2023-01-30T15:48:22;3.00;99.90
28715;DHT22;15886;49.170;14.572;2023-01-30T15:50:54;3.00;99.90
28715;DHT22;15886;49.170;14.572;2023-01-30T15:53:28;3.00;99.90
28715;DHT22;15886;49.170;14.572;2023-01-30T15:56:19;3.00;99.90
28715;DHT22;15886;49.170;14.572;2023-01-30T15:58:49;3.00;99.90
28715;DHT22;15886;49.170;14.572;2023-01-30T16:01:23;3.00;99.90
28715;DHT22;15886;49.170;14.572;2023-01-30T16:03:52;2.90;99.90
28715;DHT22;15886;49.170;14.572;2023-01-30T16:06:33;2.90;99.90
28715;DHT22;15886;49.170;14.572;2023-01-30T16:09:18;2.90;99.90
28715;DHT22;15886;49.170;14.572;2023-01-30T16:12:27;2.90;99.90
28715;DHT22;15886;49.170;14.572;2023-01-30T16:15:04;2.90;99.90
28715;DHT22;15886;49.170;14.572;2023-01-30T16:18:01;2.90;99.90
28715;DHT22;15886;49.170;14.572;2023-01-30T16:20:45;2.80;99.90
28715;DHT22;15886;49.170;14.572;2023-01-30T16:23:36;2.80;99.90
28715;DHT22;15886;49.170;14.572;2023-01-30T16:26:13;2.80;99.90
28715;DHT22;15886;49.170;14.572;2023-01-30T16:29:12;2.80;99.90
28715;DHT22;15886;49.170;14.572;2023-01-30T16:31:45;2.80;99.90
28715;DHT22;15886;49.170;14.572;2023-01-30T16:40:15;2.90;99.90
28715;DHT22;15886;49.170;14.572;2023-01-30T16:42:59;2.90;99.90
28715;DHT22;15886;49.170;14.572;2023-01-30T16:51:15;2.90;99.90
28715;DHT22;15886;49.170;14.572;2023-01-30T16:53:57;2.80;99.90
28715;DHT22;15886;49.170;14.572;2023-01-30T16:56:36;2.90;99.90
28715;DHT22;15886;49.170;14.572;2023-01-30T16:59:04;2.90;99.90
28715;DHT22;15886;49.170;14.572;2023-01-30T17:01:39;2.90;99.90
28715;DHT22;15886;49.170;14.572;2023-01-30T17:04:20;2.90;99.90
28715;DHT22;15886;49.170;14.572;2023-01-30T17:06:58;2.90;99.90
28715;DHT22;15886;49.170;14.572;2023-01-30T17:09:42;2.90;99.90
28715;DHT22;15886;49.170;14.572;2023-01-30T17:17:42;3.00;99.90
28715;DHT22;15886;49.170;14.572;2023-01-30T17:20:18;3.00;99.90
28715;DHT22;15886;49.170;14.572;2023-01-30T17:22:50;3.00;99.90
28715;DHT22;15886;49.170;14.572;2023-01-30T17:25:30;3.00;99.90
28715;DHT22;15886;49.170;14.572;2023-01-30T17:28:00;3.00;99.90
28715;DHT22;15886;49.170;14.572;2023-01-30T17:30:33;3.00;99.90
28715;DHT22;15886;49.170;14.572;2023-01-30T17:33:29;3.00;99.90
28715;DHT22;15886;49.170;14.572;2023-01-30T17:36:00;3.10;99.90
28715;DHT22;15886;49.170;14.572;2023-01-30T17:38:38;3.00;99.90
28715;DHT22;15886;49.170;14.572;2023-01-30T17:41:36;3.00;99.90
28715;DHT22;15886;49.170;14.572;2023-01-30T17:44:08;3.10;99.90
28715;DHT22;15886;49.170;14.572;2023-01-30T17:47:20;3.10;99.90
28715;DHT22;15886;49.170;14.572;2023-01-30T17:49:51;3.10;99.90
28715;DHT22;15886;49.170;14.572;2023-01-30T17:52:59;3.20;99.90
28715;DHT22;15886;49.170;14.572;2023-01-30T18:02:12;3.30;99.90
28715;DHT22;15886;49.170;14.572;2023-01-30T18:09:26;3.40;99.90
28715;DHT22;15886;49.170;14.572;2023-01-30T18:12:18;3.30;99.90
28715;DHT22;15886;49.170;14.572;2023-01-30T18:19:44;3.40;99.90
28715;DHT22;15886;49.170;14.572;2023-01-30T18:30:23;3.30;99.90
28715;DHT22;15886;49.170;14.572;2023-01-30T18:32:56;3.40;99.90
28715;DHT22;15886;49.170;14.572;2023-01-30T18:35:26;3.40;99.90
28715;DHT22;15886;49.170;14.572;2023-01-30T18:37:54;3.30;99.90
28715;DHT22;15886;49.170;14.572;2023-01-30T18:40:28;3.30;99.90
28715;DHT22;15886;49.170;14.572;2023-01-30T18:43:02;3.30;99.90
28715;DHT22;15886;49.170;14.572;2023-01-30T18:54:59;3.30;99.90
28715;DHT22;15886;49.170;14.572;2023-01-30T19:02:25;3.30;99.90
28715;DHT22;15886;49.170;14.572;2023-01-30T19:05:07;3.30;99.90
28715;DHT22;15886;49.170;14.572;2023-01-30T19:08:26;3.30;99.90
28715;DHT22;15886;49.170;14.572;2023-01-30T19:11:22;3.30;99.90
28715;DHT22;15886;49.170;14.572;2023-01-30T19:14:22;3.30;99.90
28715;DHT22;15886;49.170;14.572;2023-01-30T19:17:21;3.30;99.90
28715;DHT22;15886;49.170;14.572;2023-01-30T19:19:58;3.30;99.90
28715;DHT22;15886;49.170;14.572;2023-01-30T19:23:03;3.30;99.90
28715;DHT22;15886;49.170;14.572;2023-01-30T19:26:12;3.30;99.90
28715;DHT22;15886;49.170;14.572;2023-01-30T19:30:11;3.30;99.90
28715;DHT22;15886;49.170;14.572;2023-01-30T19:33:33;3.30;99.90
28715;DHT22;15886;49.170;14.572;2023-01-30T19:36:49;3.30;99.90
28715;DHT22;15886;49.170;14.572;2023-01-30T19:43:04;3.30;99.90
28715;DHT22;15886;49.170;14.572;2023-01-30T19:45:41;3.30;99.90
28715;DHT22;15886;49.170;14.572;2023-01-30T19:48:12;3.40;99.90
28715;DHT22;15886;49.170;14.572;2023-01-30T19:50:41;3.40;99.90
28715;DHT22;15886;49.170;14.572;2023-01-30T19:53:15;3.40;99.90
28715;DHT22;15886;49.170;14.572;2023-01-30T19:55:54;3.40;99.90
28715;DHT22;15886;49.170;14.572;2023-01-30T19:58:47;3.40;99.90
28715;DHT22;15886;49.170;14.572;2023-01-30T20:01:27;3.40;99.90
28715;DHT22;15886;49.170;14.572;2023-01-30T20:04:02;3.40;99.90
28715;DHT22;15886;49.170;14.572;2023-01-30T20:06:50;3.30;99.90
28715;DHT22;15886;49.170;14.572;2023-01-30T20:09:53;3.30;99.90
28715;DHT22;15886;49.170;14.572;2023-01-30T20:12:27;3.30;99.90
28715;DHT22;15886;49.170;14.572;2023-01-30T20:14:59;3.40;99.90
28715;DHT22;15886;49.170;14.572;2023-01-30T20:17:37;3.40;99.90